Aérodrome :
LOGIN :

S'inscrire | Disclaimer

   EN    FR    IT 

 










Légende :    VFR   VFR Marginal   IFR   IFR Intensif   IFR Très Intensif
Visi : 
Plafond : 
>= 8 km
>= 3000ft
5 à 8 km
1000 à 3000 ft
1500m à 5 km
500 à 1000 ft
800 à 1500m
200 à 500 ft
< 800m
< 200 ft
Symboles :   Orages  Brouillard  Fortes neiges  Fortes précipitations  Vent > 20 kt
SIGMETs :   Divers  Orages  Givrage  Turbulence  Onde Orograph.  Cendres Volcan.






- Altitude de l'aérodrome : 113 ft


EKRS - Ringsted

DERNIER METAR :
  • 221620Z AUTO 27016G30KT 180V320 9999 NCD 06/03 Q1001

METARs EXPIRÉS :
  • 221550Z AUTO 26014G24KT 200V350 9999 NCD 06/04 Q1000
  • 221520Z AUTO 28019G34KT 220V330 9999 FEW023/// SCT033/// 04/04 Q1000
  • 221450Z AUTO 26014G26KT 200V320 9999 FEW028/// SCT036/// 08/05 Q0999
  • 221420Z AUTO 25012G23KT 140V320 9999 SCT031/// 07/06 Q0999
  • 221350Z AUTO VRB13G35KT 9999 NCD 08/05 Q0999

TAF N/A



MET'MAP, la Météo Aéronautique d'un coup d'oeil ! - Copyright ORBIFLY Décembre 2007 - Disclaimer

ORBIFLY MET'MAP TEAM :

Programmation & Développement : Alexandra Zaïnal
Sur une idée originale de : Baudouin d'Aumeries
Assistance à la programmation : Marc-Olivier Méhu
Soutien technique & logistique : Manuel Goepfert

Contact : metmap@orbifly.com




SOURCES & CREDITS :

   NOAA